sensor_id;sensor_type;location;lat;lon;timestamp;P1;durP1;ratioP1;P2;durP2;ratioP2
41631;SDS011;37452;51.938;4.624;2023-07-29T00:01:48;4.63;;;1.58;;
41631;SDS011;37452;51.938;4.624;2023-07-29T00:04:14;2.97;;;1.23;;
41631;SDS011;37452;51.938;4.624;2023-07-29T00:06:39;4.68;;;1.67;;
41631;SDS011;37452;51.938;4.624;2023-07-29T00:09:05;3.22;;;1.13;;
41631;SDS011;37452;51.938;4.624;2023-07-29T00:11:30;2.92;;;1.23;;
41631;SDS011;37452;51.938;4.624;2023-07-29T00:13:58;3.20;;;1.05;;
41631;SDS011;37452;51.938;4.624;2023-07-29T00:16:24;4.82;;;1.52;;
41631;SDS011;37452;51.938;4.624;2023-07-29T00:18:50;4.43;;;1.35;;
41631;SDS011;37452;51.938;4.624;2023-07-29T00:21:15;2.17;;;1.02;;
41631;SDS011;37452;51.938;4.624;2023-07-29T00:23:40;5.68;;;1.60;;
41631;SDS011;37452;51.938;4.624;2023-07-29T00:26:06;6.30;;;1.50;;
41631;SDS011;37452;51.938;4.624;2023-07-29T00:28:31;6.45;;;1.73;;
41631;SDS011;37452;51.938;4.624;2023-07-29T00:30:57;4.10;;;1.17;;
41631;SDS011;37452;51.938;4.624;2023-07-29T00:33:22;4.55;;;1.70;;
41631;SDS011;37452;51.938;4.624;2023-07-29T00:35:48;8.43;;;1.67;;
41631;SDS011;37452;51.938;4.624;2023-07-29T00:38:13;11.60;;;1.73;;
41631;SDS011;37452;51.938;4.624;2023-07-29T00:40:38;5.00;;;1.40;;
41631;SDS011;37452;51.938;4.624;2023-07-29T00:43:04;4.45;;;2.03;;
41631;SDS011;37452;51.938;4.624;2023-07-29T00:45:30;6.65;;;1.60;;
41631;SDS011;37452;51.938;4.624;2023-07-29T00:47:57;9.18;;;1.77;;
41631;SDS011;37452;51.938;4.624;2023-07-29T00:50:23;6.18;;;1.98;;
41631;SDS011;37452;51.938;4.624;2023-07-29T00:52:49;6.57;;;1.98;;
41631;SDS011;37452;51.938;4.624;2023-07-29T00:55:14;5.78;;;2.20;;
41631;SDS011;37452;51.938;4.624;2023-07-29T00:57:39;9.55;;;2.67;;
41631;SDS011;37452;51.938;4.624;2023-07-29T01:00:07;8.23;;;2.53;;
41631;SDS011;37452;51.938;4.624;2023-07-29T01:02:33;7.30;;;3.13;;
41631;SDS011;37452;51.938;4.624;2023-07-29T01:05:00;6.85;;;2.20;;
41631;SDS011;37452;51.938;4.624;2023-07-29T01:10:13;6.32;;;2.45;;
41631;SDS011;37452;51.938;4.624;2023-07-29T01:15:25;8.32;;;2.00;;
41631;SDS011;37452;51.938;4.624;2023-07-29T01:20:53;5.35;;;2.28;;
41631;SDS011;37452;51.938;4.624;2023-07-29T01:23:23;7.05;;;2.15;;
41631;SDS011;37452;51.938;4.624;2023-07-29T01:25:50;7.05;;;2.20;;
41631;SDS011;37452;51.938;4.624;2023-07-29T01:28:15;7.47;;;2.03;;
41631;SDS011;37452;51.938;4.624;2023-07-29T01:30:40;5.10;;;2.08;;
41631;SDS011;37452;51.938;4.624;2023-07-29T01:33:10;5.60;;;2.33;;
41631;SDS011;37452;51.938;4.624;2023-07-29T01:35:50;4.38;;;1.67;;
41631;SDS011;37452;51.938;4.624;2023-07-29T01:38:27;6.45;;;2.03;;
41631;SDS011;37452;51.938;4.624;2023-07-29T01:40:56;5.13;;;1.30;;
41631;SDS011;37452;51.938;4.624;2023-07-29T01:43:26;4.63;;;1.65;;
41631;SDS011;37452;51.938;4.624;2023-07-29T01:45:52;4.45;;;1.45;;
41631;SDS011;37452;51.938;4.624;2023-07-29T01:48:18;5.00;;;1.38;;
41631;SDS011;37452;51.938;4.624;2023-07-29T01:50:43;4.60;;;1.35;;
41631;SDS011;37452;51.938;4.624;2023-07-29T01:53:09;4.18;;;1.23;;
41631;SDS011;37452;51.938;4.624;2023-07-29T01:55:34;3.13;;;1.63;;
41631;SDS011;37452;51.938;4.624;2023-07-29T01:58:00;4.60;;;1.60;;
41631;SDS011;37452;51.938;4.624;2023-07-29T02:00:25;7.22;;;1.88;;
41631;SDS011;37452;51.938;4.624;2023-07-29T02:02:50;3.13;;;1.30;;
41631;SDS011;37452;51.938;4.624;2023-07-29T02:05:16;2.83;;;1.42;;
41631;SDS011;37452;51.938;4.624;2023-07-29T02:07:41;4.65;;;1.52;;
41631;SDS011;37452;51.938;4.624;2023-07-29T02:10:06;7.93;;;1.35;;
41631;SDS011;37452;51.938;4.624;2023-07-29T02:12:32;5.38;;;1.30;;
41631;SDS011;37452;51.938;4.624;2023-07-29T02:14:58;2.58;;;1.25;;
41631;SDS011;37452;51.938;4.624;2023-07-29T02:17:23;5.95;;;1.67;;
41631;SDS011;37452;51.938;4.624;2023-07-29T02:19:48;4.70;;;1.83;;
41631;SDS011;37452;51.938;4.624;2023-07-29T02:22:16;1.80;;;0.88;;
41631;SDS011;37452;51.938;4.624;2023-07-29T02:24:42;4.28;;;1.48;;
41631;SDS011;37452;51.938;4.624;2023-07-29T02:27:08;2.13;;;0.93;;
41631;SDS011;37452;51.938;4.624;2023-07-29T02:29:34;3.85;;;1.10;;
41631;SDS011;37452;51.938;4.624;2023-07-29T02:31:59;2.58;;;1.10;;
41631;SDS011;37452;51.938;4.624;2023-07-29T02:34:25;6.88;;;1.10;;
41631;SDS011;37452;51.938;4.624;2023-07-29T02:36:50;2.75;;;1.15;;
41631;SDS011;37452;51.938;4.624;2023-07-29T02:39:16;4.03;;;1.30;;
41631;SDS011;37452;51.938;4.624;2023-07-29T02:41:41;3.05;;;1.15;;
41631;SDS011;37452;51.938;4.624;2023-07-29T02:44:06;3.25;;;1.00;;
41631;SDS011;37452;51.938;4.624;2023-07-29T02:46:32;3.20;;;1.15;;
41631;SDS011;37452;51.938;4.624;2023-07-29T02:48:57;1.67;;;0.98;;
41631;SDS011;37452;51.938;4.624;2023-07-29T02:51:22;3.35;;;1.05;;
41631;SDS011;37452;51.938;4.624;2023-07-29T02:53:48;3.15;;;1.17;;
41631;SDS011;37452;51.938;4.624;2023-07-29T02:56:13;4.32;;;1.30;;
41631;SDS011;37452;51.938;4.624;2023-07-29T02:58:38;2.35;;;1.17;;
41631;SDS011;37452;51.938;4.624;2023-07-29T03:01:05;6.75;;;1.50;;
41631;SDS011;37452;51.938;4.624;2023-07-29T03:03:31;4.40;;;1.58;;
41631;SDS011;37452;51.938;4.624;2023-07-29T03:05:58;1.88;;;0.93;;
41631;SDS011;37452;51.938;4.624;2023-07-29T03:08:25;3.00;;;1.45;;
41631;SDS011;37452;51.938;4.624;2023-07-29T03:10:50;3.22;;;1.30;;
41631;SDS011;37452;51.938;4.624;2023-07-29T03:13:16;4.70;;;1.38;;
41631;SDS011;37452;51.938;4.624;2023-07-29T03:15:41;4.40;;;1.83;;
41631;SDS011;37452;51.938;4.624;2023-07-29T03:18:06;5.10;;;1.63;;
41631;SDS011;37452;51.938;4.624;2023-07-29T03:20:32;4.50;;;1.50;;
41631;SDS011;37452;51.938;4.624;2023-07-29T03:22:57;3.05;;;1.50;;
41631;SDS011;37452;51.938;4.624;2023-07-29T03:25:22;2.92;;;1.10;;
41631;SDS011;37452;51.938;4.624;2023-07-29T03:27:48;2.63;;;1.33;;
41631;SDS011;37452;51.938;4.624;2023-07-29T03:30:14;2.72;;;1.35;;
41631;SDS011;37452;51.938;4.624;2023-07-29T03:32:42;3.05;;;1.33;;
41631;SDS011;37452;51.938;4.624;2023-07-29T03:35:09;6.28;;;1.75;;
41631;SDS011;37452;51.938;4.624;2023-07-29T03:37:34;5.90;;;1.50;;
41631;SDS011;37452;51.938;4.624;2023-07-29T03:40:00;2.47;;;1.20;;
41631;SDS011;37452;51.938;4.624;2023-07-29T03:42:25;4.93;;;1.55;;
41631;SDS011;37452;51.938;4.624;2023-07-29T03:44:50;2.72;;;1.50;;
41631;SDS011;37452;51.938;4.624;2023-07-29T03:47:16;3.10;;;1.60;;
41631;SDS011;37452;51.938;4.624;2023-07-29T03:49:41;3.33;;;1.63;;
41631;SDS011;37452;51.938;4.624;2023-07-29T03:52:06;5.10;;;1.70;;
41631;SDS011;37452;51.938;4.624;2023-07-29T03:54:32;3.78;;;2.00;;
41631;SDS011;37452;51.938;4.624;2023-07-29T03:56:57;4.28;;;1.52;;
41631;SDS011;37452;51.938;4.624;2023-07-29T03:59:22;3.05;;;1.80;;
41631;SDS011;37452;51.938;4.624;2023-07-29T04:01:48;2.97;;;1.70;;
41631;SDS011;37452;51.938;4.624;2023-07-29T04:04:13;4.88;;;1.55;;
41631;SDS011;37452;51.938;4.624;2023-07-29T04:06:38;4.32;;;1.95;;
41631;SDS011;37452;51.938;4.624;2023-07-29T04:09:04;3.88;;;1.80;;
41631;SDS011;37452;51.938;4.624;2023-07-29T04:11:29;4.85;;;2.13;;
41631;SDS011;37452;51.938;4.624;2023-07-29T04:13:54;5.35;;;1.75;;
41631;SDS011;37452;51.938;4.624;2023-07-29T04:16:20;4.60;;;1.83;;
41631;SDS011;37452;51.938;4.624;2023-07-29T04:18:45;4.07;;;1.60;;
41631;SDS011;37452;51.938;4.624;2023-07-29T04:21:10;5.50;;;1.70;;
41631;SDS011;37452;51.938;4.624;2023-07-29T04:23:36;4.43;;;1.77;;
41631;SDS011;37452;51.938;4.624;2023-07-29T04:26:01;7.45;;;2.30;;
41631;SDS011;37452;51.938;4.624;2023-07-29T04:28:27;5.25;;;2.00;;
41631;SDS011;37452;51.938;4.624;2023-07-29T04:30:52;3.50;;;1.80;;
41631;SDS011;37452;51.938;4.624;2023-07-29T04:33:17;4.22;;;2.10;;
41631;SDS011;37452;51.938;4.624;2023-07-29T04:35:43;4.30;;;1.98;;
41631;SDS011;37452;51.938;4.624;2023-07-29T04:38:08;3.38;;;1.60;;
41631;SDS011;37452;51.938;4.624;2023-07-29T04:40:33;6.13;;;2.25;;
41631;SDS011;37452;51.938;4.624;2023-07-29T04:43:00;4.20;;;2.08;;
41631;SDS011;37452;51.938;4.624;2023-07-29T04:45:29;5.10;;;2.20;;
41631;SDS011;37452;51.938;4.624;2023-07-29T04:47:55;5.95;;;2.38;;
41631;SDS011;37452;51.938;4.624;2023-07-29T04:50:20;7.65;;;2.53;;
41631;SDS011;37452;51.938;4.624;2023-07-29T04:52:46;5.25;;;2.50;;
41631;SDS011;37452;51.938;4.624;2023-07-29T04:55:11;5.93;;;2.75;;
41631;SDS011;37452;51.938;4.624;2023-07-29T04:57:36;4.05;;;2.42;;
41631;SDS011;37452;51.938;4.624;2023-07-29T05:00:02;8.55;;;3.20;;
41631;SDS011;37452;51.938;4.624;2023-07-29T05:02:28;7.07;;;2.75;;
41631;SDS011;37452;51.938;4.624;2023-07-29T05:04:54;10.25;;;3.80;;
41631;SDS011;37452;51.938;4.624;2023-07-29T05:07:19;5.78;;;2.90;;
41631;SDS011;37452;51.938;4.624;2023-07-29T05:09:44;5.32;;;2.92;;
41631;SDS011;37452;51.938;4.624;2023-07-29T05:12:10;6.25;;;3.08;;
41631;SDS011;37452;51.938;4.624;2023-07-29T05:14:35;6.72;;;3.05;;
41631;SDS011;37452;51.938;4.624;2023-07-29T05:17:00;7.43;;;2.58;;
41631;SDS011;37452;51.938;4.624;2023-07-29T05:19:26;7.05;;;3.13;;
41631;SDS011;37452;51.938;4.624;2023-07-29T05:21:51;9.60;;;3.17;;
41631;SDS011;37452;51.938;4.624;2023-07-29T05:24:17;5.55;;;2.92;;
41631;SDS011;37452;51.938;4.624;2023-07-29T05:26:42;6.60;;;2.80;;
41631;SDS011;37452;51.938;4.624;2023-07-29T05:29:07;6.22;;;3.50;;
41631;SDS011;37452;51.938;4.624;2023-07-29T05:31:33;5.63;;;2.40;;
41631;SDS011;37452;51.938;4.624;2023-07-29T05:33:58;7.60;;;3.33;;
41631;SDS011;37452;51.938;4.624;2023-07-29T05:36:24;6.68;;;3.22;;
41631;SDS011;37452;51.938;4.624;2023-07-29T05:38:49;6.72;;;3.03;;
41631;SDS011;37452;51.938;4.624;2023-07-29T05:41:15;6.93;;;3.10;;
41631;SDS011;37452;51.938;4.624;2023-07-29T05:43:40;10.20;;;3.10;;
41631;SDS011;37452;51.938;4.624;2023-07-29T05:46:08;5.80;;;3.20;;
41631;SDS011;37452;51.938;4.624;2023-07-29T05:48:34;10.65;;;3.65;;
41631;SDS011;37452;51.938;4.624;2023-07-29T05:50:59;9.43;;;3.65;;
41631;SDS011;37452;51.938;4.624;2023-07-29T05:53:24;6.38;;;3.45;;
41631;SDS011;37452;51.938;4.624;2023-07-29T05:55:49;7.53;;;3.20;;
41631;SDS011;37452;51.938;4.624;2023-07-29T05:58:15;5.63;;;2.80;;
41631;SDS011;37452;51.938;4.624;2023-07-29T06:00:40;5.43;;;3.05;;
41631;SDS011;37452;51.938;4.624;2023-07-29T06:03:06;7.00;;;2.90;;
41631;SDS011;37452;51.938;4.624;2023-07-29T06:05:31;8.20;;;2.75;;
41631;SDS011;37452;51.938;4.624;2023-07-29T06:07:57;7.28;;;2.80;;
41631;SDS011;37452;51.938;4.624;2023-07-29T06:10:22;8.73;;;2.88;;
41631;SDS011;37452;51.938;4.624;2023-07-29T06:12:47;5.85;;;2.80;;
41631;SDS011;37452;51.938;4.624;2023-07-29T06:15:13;5.88;;;2.78;;
41631;SDS011;37452;51.938;4.624;2023-07-29T06:17:39;5.93;;;3.17;;
41631;SDS011;37452;51.938;4.624;2023-07-29T06:20:04;8.57;;;2.97;;
41631;SDS011;37452;51.938;4.624;2023-07-29T06:22:31;8.15;;;2.65;;
41631;SDS011;37452;51.938;4.624;2023-07-29T06:24:56;8.27;;;2.63;;
41631;SDS011;37452;51.938;4.624;2023-07-29T06:27:21;9.43;;;3.35;;
41631;SDS011;37452;51.938;4.624;2023-07-29T06:29:47;8.50;;;2.75;;
41631;SDS011;37452;51.938;4.624;2023-07-29T06:32:12;4.30;;;2.65;;
41631;SDS011;37452;51.938;4.624;2023-07-29T06:34:37;5.60;;;2.90;;
41631;SDS011;37452;51.938;4.624;2023-07-29T06:37:03;3.38;;;1.77;;
41631;SDS011;37452;51.938;4.624;2023-07-29T06:39:28;5.22;;;2.30;;
41631;SDS011;37452;51.938;4.624;2023-07-29T06:41:53;6.43;;;2.42;;
41631;SDS011;37452;51.938;4.624;2023-07-29T06:44:19;8.13;;;2.53;;
41631;SDS011;37452;51.938;4.624;2023-07-29T06:46:44;7.70;;;2.85;;
41631;SDS011;37452;51.938;4.624;2023-07-29T06:49:09;7.03;;;2.60;;
41631;SDS011;37452;51.938;4.624;2023-07-29T06:51:35;8.98;;;2.63;;
41631;SDS011;37452;51.938;4.624;2023-07-29T06:54:01;6.72;;;2.75;;
41631;SDS011;37452;51.938;4.624;2023-07-29T06:56:27;7.20;;;2.40;;
41631;SDS011;37452;51.938;4.624;2023-07-29T06:58:52;6.93;;;2.38;;
41631;SDS011;37452;51.938;4.624;2023-07-29T07:01:17;6.63;;;2.30;;
41631;SDS011;37452;51.938;4.624;2023-07-29T07:03:43;4.90;;;2.58;;
41631;SDS011;37452;51.938;4.624;2023-07-29T07:06:08;8.48;;;2.78;;
41631;SDS011;37452;51.938;4.624;2023-07-29T07:08:34;7.20;;;1.98;;
41631;SDS011;37452;51.938;4.624;2023-07-29T07:10:59;7.07;;;1.90;;
41631;SDS011;37452;51.938;4.624;2023-07-29T07:13:24;5.93;;;1.90;;
41631;SDS011;37452;51.938;4.624;2023-07-29T07:15:50;4.32;;;2.10;;
41631;SDS011;37452;51.938;4.624;2023-07-29T07:18:15;4.07;;;1.88;;
41631;SDS011;37452;51.938;4.624;2023-07-29T07:20:40;7.95;;;2.08;;
41631;SDS011;37452;51.938;4.624;2023-07-29T07:23:06;7.32;;;2.42;;
41631;SDS011;37452;51.938;4.624;2023-07-29T07:25:35;2.45;;;1.58;;
41631;SDS011;37452;51.938;4.624;2023-07-29T07:28:01;4.78;;;1.80;;
41631;SDS011;37452;51.938;4.624;2023-07-29T07:30:26;5.70;;;2.03;;
41631;SDS011;37452;51.938;4.624;2023-07-29T07:32:52;5.85;;;1.95;;
41631;SDS011;37452;51.938;4.624;2023-07-29T07:35:17;5.55;;;2.10;;
41631;SDS011;37452;51.938;4.624;2023-07-29T07:37:43;3.15;;;1.77;;
41631;SDS011;37452;51.938;4.624;2023-07-29T07:40:09;6.47;;;1.98;;
41631;SDS011;37452;51.938;4.624;2023-07-29T07:42:34;3.45;;;1.52;;
41631;SDS011;37452;51.938;4.624;2023-07-29T07:45:00;5.40;;;1.92;;
41631;SDS011;37452;51.938;4.624;2023-07-29T07:47:25;5.35;;;2.20;;
41631;SDS011;37452;51.938;4.624;2023-07-29T07:49:50;3.92;;;2.17;;
41631;SDS011;37452;51.938;4.624;2023-07-29T07:52:16;4.55;;;1.95;;
41631;SDS011;37452;51.938;4.624;2023-07-29T07:54:41;7.60;;;2.40;;
41631;SDS011;37452;51.938;4.624;2023-07-29T07:57:06;3.97;;;2.15;;
41631;SDS011;37452;51.938;4.624;2023-07-29T07:59:32;4.45;;;2.80;;
41631;SDS011;37452;51.938;4.624;2023-07-29T08:01:57;6.68;;;2.58;;
41631;SDS011;37452;51.938;4.624;2023-07-29T08:04:22;4.40;;;2.10;;
41631;SDS011;37452;51.938;4.624;2023-07-29T08:06:48;5.63;;;2.25;;
41631;SDS011;37452;51.938;4.624;2023-07-29T08:09:13;4.38;;;2.17;;
41631;SDS011;37452;51.938;4.624;2023-07-29T08:11:39;4.10;;;2.28;;
41631;SDS011;37452;51.938;4.624;2023-07-29T08:14:05;3.67;;;2.17;;
41631;SDS011;37452;51.938;4.624;2023-07-29T08:16:30;4.43;;;2.45;;
41631;SDS011;37452;51.938;4.624;2023-07-29T08:18:55;7.07;;;2.28;;
41631;SDS011;37452;51.938;4.624;2023-07-29T08:21:21;7.38;;;2.88;;
41631;SDS011;37452;51.938;4.624;2023-07-29T08:23:46;4.93;;;2.42;;
41631;SDS011;37452;51.938;4.624;2023-07-29T08:26:11;5.88;;;2.50;;
41631;SDS011;37452;51.938;4.624;2023-07-29T08:28:38;5.85;;;2.40;;
41631;SDS011;37452;51.938;4.624;2023-07-29T08:31:04;5.75;;;2.45;;
41631;SDS011;37452;51.938;4.624;2023-07-29T08:33:30;3.65;;;2.40;;
41631;SDS011;37452;51.938;4.624;2023-07-29T08:35:56;7.25;;;2.33;;
41631;SDS011;37452;51.938;4.624;2023-07-29T08:38:22;5.72;;;2.35;;
41631;SDS011;37452;51.938;4.624;2023-07-29T08:41:04;4.88;;;2.40;;
41631;SDS011;37452;51.938;4.624;2023-07-29T08:43:48;4.47;;;2.33;;
41631;SDS011;37452;51.938;4.624;2023-07-29T08:46:18;4.07;;;2.20;;
41631;SDS011;37452;51.938;4.624;2023-07-29T08:48:44;6.50;;;1.92;;
41631;SDS011;37452;51.938;4.624;2023-07-29T08:51:11;5.93;;;2.00;;
41631;SDS011;37452;51.938;4.624;2023-07-29T08:53:37;5.13;;;2.20;;
41631;SDS011;37452;51.938;4.624;2023-07-29T08:56:03;3.58;;;1.90;;
41631;SDS011;37452;51.938;4.624;2023-07-29T08:58:30;4.45;;;1.85;;
41631;SDS011;37452;51.938;4.624;2023-07-29T09:00:56;2.92;;;1.75;;
41631;SDS011;37452;51.938;4.624;2023-07-29T09:03:22;2.03;;;1.60;;
41631;SDS011;37452;51.938;4.624;2023-07-29T09:05:47;4.55;;;1.90;;
41631;SDS011;37452;51.938;4.624;2023-07-29T09:08:13;6.75;;;2.00;;
41631;SDS011;37452;51.938;4.624;2023-07-29T09:10:39;2.13;;;1.40;;
41631;SDS011;37452;51.938;4.624;2023-07-29T09:13:04;4.13;;;1.77;;
41631;SDS011;37452;51.938;4.624;2023-07-29T09:15:31;4.38;;;2.33;;
41631;SDS011;37452;51.938;4.624;2023-07-29T09:17:58;4.35;;;1.83;;
41631;SDS011;37452;51.938;4.624;2023-07-29T09:20:27;4.28;;;2.33;;
41631;SDS011;37452;51.938;4.624;2023-07-29T09:22:54;3.05;;;2.10;;
41631;SDS011;37452;51.938;4.624;2023-07-29T09:25:26;4.38;;;2.10;;
41631;SDS011;37452;51.938;4.624;2023-07-29T09:27:57;9.00;;;2.63;;
41631;SDS011;37452;51.938;4.624;2023-07-29T09:30:25;3.55;;;2.13;;
41631;SDS011;37452;51.938;4.624;2023-07-29T09:32:56;4.70;;;2.33;;
41631;SDS011;37452;51.938;4.624;2023-07-29T09:35:23;4.20;;;2.47;;
41631;SDS011;37452;51.938;4.624;2023-07-29T09:37:50;5.30;;;2.35;;
41631;SDS011;37452;51.938;4.624;2023-07-29T09:40:16;4.30;;;2.00;;
41631;SDS011;37452;51.938;4.624;2023-07-29T09:42:54;3.35;;;1.80;;
41631;SDS011;37452;51.938;4.624;2023-07-29T09:45:21;3.20;;;1.63;;
41631;SDS011;37452;51.938;4.624;2023-07-29T09:47:53;5.25;;;1.70;;
41631;SDS011;37452;51.938;4.624;2023-07-29T09:50:23;4.47;;;2.00;;
41631;SDS011;37452;51.938;4.624;2023-07-29T09:52:50;2.72;;;1.30;;
41631;SDS011;37452;51.938;4.624;2023-07-29T09:55:17;4.38;;;1.60;;
41631;SDS011;37452;51.938;4.624;2023-07-29T09:57:44;2.50;;;1.20;;
41631;SDS011;37452;51.938;4.624;2023-07-29T10:00:13;1.95;;;0.90;;
41631;SDS011;37452;51.938;4.624;2023-07-29T10:02:39;1.75;;;0.80;;
41631;SDS011;37452;51.938;4.624;2023-07-29T10:05:06;1.65;;;0.75;;
41631;SDS011;37452;51.938;4.624;2023-07-29T10:07:33;2.00;;;0.80;;
41631;SDS011;37452;51.938;4.624;2023-07-29T10:10:03;1.83;;;0.60;;
41631;SDS011;37452;51.938;4.624;2023-07-29T10:12:30;2.00;;;0.70;;
41631;SDS011;37452;51.938;4.624;2023-07-29T10:14:58;4.32;;;0.70;;
41631;SDS011;37452;51.938;4.624;2023-07-29T10:17:25;1.33;;;0.57;;
41631;SDS011;37452;51.938;4.624;2023-07-29T10:19:51;2.15;;;0.50;;
41631;SDS011;37452;51.938;4.624;2023-07-29T10:22:17;3.67;;;0.77;;
41631;SDS011;37452;51.938;4.624;2023-07-29T10:24:45;2.50;;;0.70;;
41631;SDS011;37452;51.938;4.624;2023-07-29T10:27:13;3.50;;;0.80;;
41631;SDS011;37452;51.938;4.624;2023-07-29T10:29:42;3.20;;;0.85;;
41631;SDS011;37452;51.938;4.624;2023-07-29T10:32:09;3.35;;;0.77;;
41631;SDS011;37452;51.938;4.624;2023-07-29T10:34:36;3.42;;;0.98;;
41631;SDS011;37452;51.938;4.624;2023-07-29T10:37:03;2.70;;;0.80;;
41631;SDS011;37452;51.938;4.624;2023-07-29T10:39:37;3.92;;;1.00;;
41631;SDS011;37452;51.938;4.624;2023-07-29T10:42:06;3.30;;;1.00;;
41631;SDS011;37452;51.938;4.624;2023-07-29T10:50:16;3.13;;;0.98;;
41631;SDS011;37452;51.938;4.624;2023-07-29T10:52:48;6.35;;;1.50;;
41631;SDS011;37452;51.938;4.624;2023-07-29T10:55:26;3.50;;;1.27;;
41631;SDS011;37452;51.938;4.624;2023-07-29T10:58:04;6.78;;;1.45;;
41631;SDS011;37452;51.938;4.624;2023-07-29T11:00:42;3.17;;;1.50;;
41631;SDS011;37452;51.938;4.624;2023-07-29T11:03:09;3.28;;;1.77;;
41631;SDS011;37452;51.938;4.624;2023-07-29T11:05:52;2.50;;;1.27;;
41631;SDS011;37452;51.938;4.624;2023-07-29T11:08:19;4.63;;;1.80;;
41631;SDS011;37452;51.938;4.624;2023-07-29T11:10:45;4.60;;;1.83;;
41631;SDS011;37452;51.938;4.624;2023-07-29T11:13:33;4.50;;;2.00;;
41631;SDS011;37452;51.938;4.624;2023-07-29T11:16:00;4.35;;;1.40;;
41631;SDS011;37452;51.938;4.624;2023-07-29T11:18:27;3.67;;;1.60;;
41631;SDS011;37452;51.938;4.624;2023-07-29T11:20:54;3.70;;;1.73;;
41631;SDS011;37452;51.938;4.624;2023-07-29T11:23:21;5.28;;;1.55;;
41631;SDS011;37452;51.938;4.624;2023-07-29T11:25:52;2.95;;;1.75;;
41631;SDS011;37452;51.938;4.624;2023-07-29T11:28:17;2.50;;;1.30;;
41631;SDS011;37452;51.938;4.624;2023-07-29T11:30:43;3.33;;;1.65;;
41631;SDS011;37452;51.938;4.624;2023-07-29T11:33:08;2.75;;;1.08;;
41631;SDS011;37452;51.938;4.624;2023-07-29T11:35:35;2.65;;;1.40;;
41631;SDS011;37452;51.938;4.624;2023-07-29T11:38:00;4.55;;;1.38;;
41631;SDS011;37452;51.938;4.624;2023-07-29T11:40:25;4.13;;;1.77;;
41631;SDS011;37452;51.938;4.624;2023-07-29T11:42:51;4.90;;;1.83;;
41631;SDS011;37452;51.938;4.624;2023-07-29T11:45:18;5.50;;;2.10;;
41631;SDS011;37452;51.938;4.624;2023-07-29T11:47:44;5.70;;;1.80;;
41631;SDS011;37452;51.938;4.624;2023-07-29T11:50:11;3.40;;;1.92;;
41631;SDS011;37452;51.938;4.624;2023-07-29T11:52:40;3.25;;;1.90;;
41631;SDS011;37452;51.938;4.624;2023-07-29T11:55:07;3.60;;;2.00;;
41631;SDS011;37452;51.938;4.624;2023-07-29T11:57:34;2.83;;;1.85;;
41631;SDS011;37452;51.938;4.624;2023-07-29T12:00:05;3.75;;;1.92;;
41631;SDS011;37452;51.938;4.624;2023-07-29T12:02:36;2.75;;;1.63;;
41631;SDS011;37452;51.938;4.624;2023-07-29T12:05:04;3.25;;;1.70;;
41631;SDS011;37452;51.938;4.624;2023-07-29T12:07:30;3.80;;;2.08;;
41631;SDS011;37452;51.938;4.624;2023-07-29T12:09:56;4.18;;;1.90;;
41631;SDS011;37452;51.938;4.624;2023-07-29T12:12:22;3.58;;;2.13;;
41631;SDS011;37452;51.938;4.624;2023-07-29T12:14:48;5.97;;;2.35;;
41631;SDS011;37452;51.938;4.624;2023-07-29T12:17:14;5.20;;;2.28;;
41631;SDS011;37452;51.938;4.624;2023-07-29T12:19:39;3.58;;;2.03;;
41631;SDS011;37452;51.938;4.624;2023-07-29T12:22:08;6.13;;;2.20;;
41631;SDS011;37452;51.938;4.624;2023-07-29T12:24:36;3.50;;;1.83;;
41631;SDS011;37452;51.938;4.624;2023-07-29T12:27:03;3.53;;;1.85;;
41631;SDS011;37452;51.938;4.624;2023-07-29T12:29:28;2.78;;;1.63;;
41631;SDS011;37452;51.938;4.624;2023-07-29T12:31:58;4.47;;;1.67;;
41631;SDS011;37452;51.938;4.624;2023-07-29T12:34:25;6.40;;;1.60;;
41631;SDS011;37452;51.938;4.624;2023-07-29T12:36:55;2.63;;;1.40;;
41631;SDS011;37452;51.938;4.624;2023-07-29T12:39:25;3.50;;;1.73;;
41631;SDS011;37452;51.938;4.624;2023-07-29T12:41:53;4.30;;;1.60;;
41631;SDS011;37452;51.938;4.624;2023-07-29T12:44:23;3.40;;;1.58;;
41631;SDS011;37452;51.938;4.624;2023-07-29T12:46:49;2.47;;;1.55;;
41631;SDS011;37452;51.938;4.624;2023-07-29T12:49:15;5.25;;;1.52;;
41631;SDS011;37452;51.938;4.624;2023-07-29T12:51:40;2.88;;;1.30;;
41631;SDS011;37452;51.938;4.624;2023-07-29T12:54:06;3.03;;;1.60;;
41631;SDS011;37452;51.938;4.624;2023-07-29T12:56:32;3.17;;;1.23;;
41631;SDS011;37452;51.938;4.624;2023-07-29T12:58:58;3.25;;;1.30;;
41631;SDS011;37452;51.938;4.624;2023-07-29T13:01:24;4.28;;;1.50;;
41631;SDS011;37452;51.938;4.624;2023-07-29T13:03:50;2.15;;;1.13;;
41631;SDS011;37452;51.938;4.624;2023-07-29T13:06:16;4.97;;;1.30;;
41631;SDS011;37452;51.938;4.624;2023-07-29T13:08:41;4.00;;;2.10;;
41631;SDS011;37452;51.938;4.624;2023-07-29T13:11:07;2.78;;;0.98;;
41631;SDS011;37452;51.938;4.624;2023-07-29T13:13:32;3.67;;;1.25;;
41631;SDS011;37452;51.938;4.624;2023-07-29T13:15:58;6.28;;;1.20;;
41631;SDS011;37452;51.938;4.624;2023-07-29T13:18:24;4.93;;;1.10;;
41631;SDS011;37452;51.938;4.624;2023-07-29T13:20:49;6.57;;;1.20;;
41631;SDS011;37452;51.938;4.624;2023-07-29T13:23:15;3.38;;;1.38;;
41631;SDS011;37452;51.938;4.624;2023-07-29T13:25:41;5.35;;;1.27;;
41631;SDS011;37452;51.938;4.624;2023-07-29T13:28:06;4.03;;;1.10;;
41631;SDS011;37452;51.938;4.624;2023-07-29T13:30:32;2.97;;;1.10;;
41631;SDS011;37452;51.938;4.624;2023-07-29T13:32:58;4.82;;;0.85;;
41631;SDS011;37452;51.938;4.624;2023-07-29T13:35:23;4.53;;;1.20;;
41631;SDS011;37452;51.938;4.624;2023-07-29T13:37:49;6.05;;;0.90;;
41631;SDS011;37452;51.938;4.624;2023-07-29T13:40:14;3.15;;;0.90;;
41631;SDS011;37452;51.938;4.624;2023-07-29T13:42:39;4.25;;;0.80;;
41631;SDS011;37452;51.938;4.624;2023-07-29T13:45:05;2.80;;;0.80;;
41631;SDS011;37452;51.938;4.624;2023-07-29T13:47:30;4.10;;;0.70;;
41631;SDS011;37452;51.938;4.624;2023-07-29T13:49:56;1.85;;;0.77;;
41631;SDS011;37452;51.938;4.624;2023-07-29T13:52:21;2.33;;;0.90;;
41631;SDS011;37452;51.938;4.624;2023-07-29T13:54:47;2.20;;;0.90;;
41631;SDS011;37452;51.938;4.624;2023-07-29T13:57:12;2.15;;;0.77;;
41631;SDS011;37452;51.938;4.624;2023-07-29T13:59:37;2.38;;;0.88;;
41631;SDS011;37452;51.938;4.624;2023-07-29T14:02:04;3.05;;;0.85;;
41631;SDS011;37452;51.938;4.624;2023-07-29T14:04:30;3.15;;;1.17;;
41631;SDS011;37452;51.938;4.624;2023-07-29T14:06:55;4.82;;;1.00;;
41631;SDS011;37452;51.938;4.624;2023-07-29T14:09:21;2.60;;;0.80;;
41631;SDS011;37452;51.938;4.624;2023-07-29T14:11:46;2.85;;;0.95;;
41631;SDS011;37452;51.938;4.624;2023-07-29T14:14:11;1.80;;;0.70;;
41631;SDS011;37452;51.938;4.624;2023-07-29T14:16:37;3.13;;;1.00;;
41631;SDS011;37452;51.938;4.624;2023-07-29T14:19:02;1.90;;;0.70;;
41631;SDS011;37452;51.938;4.624;2023-07-29T14:21:28;1.58;;;0.70;;
41631;SDS011;37452;51.938;4.624;2023-07-29T14:23:53;3.65;;;0.82;;
41631;SDS011;37452;51.938;4.624;2023-07-29T14:26:18;4.43;;;0.80;;
41631;SDS011;37452;51.938;4.624;2023-07-29T14:28:44;3.58;;;0.80;;
41631;SDS011;37452;51.938;4.624;2023-07-29T14:31:09;2.10;;;0.80;;
41631;SDS011;37452;51.938;4.624;2023-07-29T14:33:35;2.40;;;0.80;;
41631;SDS011;37452;51.938;4.624;2023-07-29T14:36:00;24.10;;;2.15;;
41631;SDS011;37452;51.938;4.624;2023-07-29T14:38:28;4.32;;;0.82;;
41631;SDS011;37452;51.938;4.624;2023-07-29T14:40:53;4.40;;;0.90;;
41631;SDS011;37452;51.938;4.624;2023-07-29T14:43:21;3.08;;;0.95;;
41631;SDS011;37452;51.938;4.624;2023-07-29T14:45:47;5.55;;;1.38;;
41631;SDS011;37452;51.938;4.624;2023-07-29T14:48:12;4.38;;;1.10;;
41631;SDS011;37452;51.938;4.624;2023-07-29T14:50:38;5.65;;;0.95;;
41631;SDS011;37452;51.938;4.624;2023-07-29T14:53:03;3.53;;;1.25;;
41631;SDS011;37452;51.938;4.624;2023-07-29T14:55:28;1.88;;;1.10;;
41631;SDS011;37452;51.938;4.624;2023-07-29T14:57:53;3.35;;;1.00;;